aviador You're here:

KJSO Decoded Metar

JACKSONVILLE in TX, USA
Report Time2018-06-19 07:55:00
UTC Time2018-06-19 08:12:21
Flight Rules mvfr MVFR
Wind130° at 05 kt
W.Decomp.*RWY 14: 4.8 kt HW 1.3 kt LCW
W.Rank130° ranks 21
Current wind is above 130° avg. (4.8)
Visibility9999 m
Phenomena:N/A
Clouds:Scattered 014 Hf
Broken 028 Hf
Overcast 032 Hf
Expected CloudBase > 800 ft AGL from Temp-Dew spread
Ceiling2,800 ft
Temp22°C (ISA +8)
Dew Point20°C (88% RH)
QNH1016 hPa
Density Alt1,857 ft
Elevation676 ft
Report Wrong Elevation
Raw Report
KJSO 190755Z AUTO 13005KT 10SM SCT014 BKN028 OVC032 22/20 A3000
RMK AO2 T02300206=

Extra information for KJSO:More info

Metar Taf Metar & Taf Last 4 Metars F.Rules Stats Wind Profile Meteogram Temp Stats Airport Information Weather charts Add Link Nearby VenuesMetar ALERT Operation Metar Decoded Social comments

AIRNAV info for KJSO